createdAt,value
2022-07-30T00:00:37.799Z,101897.75
2022-07-30T00:03:06.389Z,101941.94
2022-07-30T00:05:34.817Z,101930.44
2022-07-30T00:08:03.301Z,101910.09
2022-07-30T00:10:31.772Z,101908.34
2022-07-30T00:13:00.197Z,101930.44
2022-07-30T00:15:30.079Z,101908.34
2022-07-30T00:17:58.500Z,101914.53
2022-07-30T00:20:28.622Z,101928.72
2022-07-30T00:22:57.618Z,101895.09
2022-07-30T00:25:26.027Z,101932.19
2022-07-30T00:27:54.448Z,101911.88
2022-07-30T00:30:23.451Z,101916.28
2022-07-30T00:32:53.386Z,101928.66
2022-07-30T00:35:21.842Z,101913.63
2022-07-30T00:37:50.208Z,101897.75
2022-07-30T00:40:18.706Z,101886.25
2022-07-30T00:42:49.681Z,101887.13
2022-07-30T00:45:19.614Z,101875.66
2022-07-30T00:47:48.039Z,101895.06
2022-07-30T00:50:17.909Z,101880.91
2022-07-30T00:52:47.312Z,101897.72
2022-07-30T00:55:17.281Z,101926.03
2022-07-30T00:57:46.312Z,101924.22
2022-07-30T01:00:18.551Z,101913.63
2022-07-30T01:02:47.063Z,101912.75
2022-07-30T01:05:16.950Z,101918.94
2022-07-30T01:07:45.733Z,101880.94
2022-07-30T01:10:16.836Z,101916.28
2022-07-30T01:12:46.768Z,101888.00
2022-07-30T01:15:16.305Z,101911.88
2022-07-30T01:17:45.901Z,101910.97
2022-07-30T01:20:29.599Z,101895.97
2022-07-30T01:23:09.278Z,101896.81
2022-07-30T01:25:56.076Z,101912.69
2022-07-30T01:28:31.304Z,101909.13
2022-07-30T01:31:01.604Z,101912.69
2022-07-30T01:33:32.581Z,101910.94
2022-07-30T01:36:03.562Z,101914.44
2022-07-30T01:38:35.106Z,101923.25
2022-07-30T01:41:07.039Z,101916.19
2022-07-30T01:43:37.885Z,101911.78
2022-07-30T01:46:09.066Z,101913.56
2022-07-30T01:48:42.108Z,101912.66
2022-07-30T01:51:14.792Z,101919.75
2022-07-30T01:53:50.157Z,101895.91
2022-07-30T01:56:25.096Z,101879.03
2022-07-30T01:58:56.830Z,101909.13
2022-07-30T02:01:27.786Z,101908.22
2022-07-30T02:04:03.575Z,101908.22
2022-07-30T02:06:37.162Z,101862.19
2022-07-30T02:09:11.265Z,101914.34
2022-07-30T02:12:03.789Z,101886.06
2022-07-30T02:14:40.336Z,101885.19
2022-07-30T02:17:19.093Z,101893.97
2022-07-30T02:19:55.279Z,101899.25
2022-07-30T02:22:27.211Z,101916.97
2022-07-30T02:24:58.682Z,101910.78
2022-07-30T02:27:34.760Z,101893.91
2022-07-30T02:30:08.957Z,101918.66
2022-07-30T02:32:43.532Z,101920.44
2022-07-30T02:35:18.308Z,101919.53
2022-07-30T02:37:49.224Z,101925.72
2022-07-30T02:40:20.470Z,101929.19
2022-07-30T02:42:53.460Z,101938.88
2022-07-30T02:45:27.542Z,101919.44
2022-07-30T02:48:02.708Z,101911.47
2022-07-30T02:50:31.917Z,101922.13
2022-07-30T02:53:03.183Z,101861.16
2022-07-30T02:55:35.973Z,101916.78
2022-07-30T02:58:08.289Z,101919.50
2022-07-30T03:00:37.870Z,101892.09
2022-07-30T03:03:08.291Z,101915.97
2022-07-30T03:05:40.848Z,101902.66
2022-07-30T03:08:10.829Z,101914.19
2022-07-30T03:10:41.164Z,101930.91
2022-07-30T03:13:13.103Z,101934.41
2022-07-30T03:15:48.891Z,101927.38
2022-07-30T03:18:20.354Z,101902.63
2022-07-30T03:20:55.721Z,101921.16
2022-07-30T03:23:25.327Z,101907.91
2022-07-30T03:25:58.878Z,101919.28
2022-07-30T03:28:32.407Z,101908.72
2022-07-30T03:31:02.403Z,101918.44
2022-07-30T03:33:38.361Z,101908.75
2022-07-30T03:36:09.932Z,101936.09
2022-07-30T03:38:40.424Z,101918.44
2022-07-30T03:41:11.592Z,101899.91
2022-07-30T03:43:43.983Z,101928.19
2022-07-30T03:46:14.557Z,101927.22
2022-07-30T03:48:47.152Z,101929.81
2022-07-30T03:51:17.488Z,101949.38
2022-07-30T03:53:47.166Z,101935.16
2022-07-30T03:56:35.309Z,101937.75
2022-07-30T03:59:10.554Z,101929.72
2022-07-30T04:01:41.694Z,101925.22
2022-07-30T04:04:43.503Z,101948.28
2022-07-30T04:07:12.065Z,101942.06
2022-07-30T04:09:40.527Z,101936.78
2022-07-30T04:12:25.841Z,101919.88
2022-07-30T04:14:57.500Z,101954.47
2022-07-30T04:17:33.073Z,101931.31
2022-07-30T04:20:17.956Z,101940.25
2022-07-30T04:22:47.631Z,101926.91
2022-07-30T04:25:22.974Z,101957.84
2022-07-30T04:28:02.882Z,101959.59
2022-07-30T04:30:35.099Z,101957.84
2022-07-30T04:33:04.852Z,101961.50
2022-07-30T04:36:00.903Z,101973.94
2022-07-30T04:38:34.046Z,101945.63
2022-07-30T04:41:02.521Z,101948.34
2022-07-30T04:43:38.567Z,101966.03
2022-07-30T04:46:08.437Z,101943.09
2022-07-30T04:48:37.266Z,101974.03
2022-07-30T04:51:19.406Z,101959.84
2022-07-30T04:53:50.269Z,101978.53
2022-07-30T04:56:23.728Z,101979.38
2022-07-30T04:58:53.114Z,101981.16
2022-07-30T05:01:35.890Z,101982.00
2022-07-30T05:04:11.757Z,101958.16
2022-07-30T05:06:41.677Z,101984.72
2022-07-30T05:09:12.091Z,101983.00
2022-07-30T05:11:40.586Z,101988.25
2022-07-30T05:14:09.038Z,101982.91
2022-07-30T05:16:39.588Z,101999.81
2022-07-30T05:19:08.082Z,101972.38
2022-07-30T05:21:38.062Z,101997.22
2022-07-30T05:24:07.713Z,101986.59
2022-07-30T05:26:40.618Z,101999.06
2022-07-30T05:29:19.384Z,101992.88
2022-07-30T05:32:02.500Z,101999.16
2022-07-30T05:34:31.865Z,101988.56
2022-07-30T05:37:01.280Z,101985.91
2022-07-30T05:39:29.730Z,101996.56
2022-07-30T05:42:24.545Z,101984.19
2022-07-30T05:44:57.075Z,101962.09
2022-07-30T05:47:27.495Z,101971.78
2022-07-30T05:49:59.337Z,102001.06
2022-07-30T05:52:29.913Z,101980.72
2022-07-30T05:55:05.364Z,102010.72
2022-07-30T05:57:52.341Z,102018.72
2022-07-30T06:00:20.950Z,101982.41
2022-07-30T06:02:57.013Z,101994.78
2022-07-30T06:05:25.506Z,102012.53
2022-07-30T06:07:58.214Z,101996.63
2022-07-30T06:10:28.945Z,101966.50
2022-07-30T06:12:57.416Z,102004.53
2022-07-30T06:15:27.273Z,102012.53
2022-07-30T06:18:02.054Z,101989.50
2022-07-30T06:20:44.055Z,101993.97
2022-07-30T06:23:12.501Z,102012.56
2022-07-30T06:26:13.269Z,101991.34
2022-07-30T06:28:42.948Z,101978.97
2022-07-30T06:31:31.605Z,101973.72
2022-07-30T06:34:01.458Z,101979.88
2022-07-30T06:36:35.433Z,101989.66
2022-07-30T06:39:07.944Z,101977.25
2022-07-30T06:41:59.768Z,101978.19
2022-07-30T06:44:31.253Z,102006.47
2022-07-30T06:47:08.144Z,101987.00
2022-07-30T06:49:40.982Z,101994.09
2022-07-30T06:52:15.653Z,101981.72
2022-07-30T06:54:49.909Z,101957.84
2022-07-30T06:57:42.373Z,101999.38
2022-07-30T07:00:22.400Z,101995.84
2022-07-30T07:02:51.460Z,101994.09
2022-07-30T07:05:29.190Z,101974.66
2022-07-30T07:07:59.784Z,101966.66
2022-07-30T07:10:34.284Z,101971.06
2022-07-30T07:13:21.272Z,101990.47
2022-07-30T07:15:49.915Z,101977.28
2022-07-30T07:18:22.148Z,101965.78
2022-07-30T07:20:59.208Z,101994.06
2022-07-30T07:23:41.962Z,101979.94
2022-07-30T07:26:22.076Z,101996.69
2022-07-30T07:28:50.502Z,101927.78
2022-07-30T07:32:02.533Z,101964.91
2022-07-30T07:34:07.608Z,101971.09
2022-07-30T07:36:37.742Z,102003.78
2022-07-30T07:39:09.715Z,101973.69
2022-07-30T07:41:48.841Z,102001.06
2022-07-30T07:44:21.769Z,101993.97
2022-07-30T07:46:50.151Z,101978.06
2022-07-30T07:49:18.700Z,101988.69
2022-07-30T07:51:52.543Z,101994.78
2022-07-30T07:54:23.285Z,101992.06
2022-07-30T07:56:56.083Z,101999.78
2022-07-30T07:59:40.672Z,101988.03
2022-07-30T08:02:26.973Z,101997.16
2022-07-30T08:05:10.603Z,101974.72
2022-07-30T08:07:53.866Z,101958.84
2022-07-30T08:10:40.936Z,101979.38
2022-07-30T08:13:52.247Z,101984.75
2022-07-30T08:16:34.688Z,101983.16
2022-07-30T08:19:12.145Z,101980.53
2022-07-30T08:21:43.561Z,101960.13
2022-07-30T08:24:19.233Z,101948.59
2022-07-30T08:26:48.129Z,101952.91
2022-07-30T08:29:17.329Z,101949.09
2022-07-30T08:31:46.712Z,101964.97
2022-07-30T08:34:15.697Z,101964.78
2022-07-30T08:36:45.310Z,101950.03
2022-07-30T08:39:13.687Z,101960.91
2022-07-30T08:41:44.425Z,101951.59
2022-07-30T08:44:13.849Z,101954.19
2022-07-30T08:46:46.942Z,101956.84
2022-07-30T08:49:49.096Z,101959.41
2022-07-30T08:52:20.898Z,101980.00
2022-07-30T08:54:58.952Z,101961.13
2022-07-30T08:57:31.032Z,101959.38
2022-07-30T09:00:01.753Z,101970.59
2022-07-30T09:02:33.315Z,101981.34
2022-07-30T09:05:06.078Z,101967.66
2022-07-30T09:07:34.983Z,101977.28
2022-07-30T09:10:05.817Z,101984.16
2022-07-30T09:12:40.320Z,101960.16
2022-07-30T09:15:12.994Z,101960.97
2022-07-30T09:17:57.076Z,101947.22
2022-07-30T09:20:30.570Z,101980.56
2022-07-30T09:23:01.857Z,101979.34
2022-07-30T09:26:02.181Z,101968.34
2022-07-30T09:28:43.934Z,101989.59
2022-07-30T09:31:16.198Z,101960.09
2022-07-30T09:34:29.532Z,101985.75
2022-07-30T09:37:19.716Z,101982.44
2022-07-30T09:40:17.307Z,101972.50
2022-07-30T09:43:18.698Z,101976.84
2022-07-30T09:45:57.359Z,101964.59
2022-07-30T09:48:28.438Z,101964.09
2022-07-30T09:50:57.822Z,101955.88
2022-07-30T09:53:26.514Z,101985.72
2022-07-30T09:55:56.413Z,101975.13
2022-07-30T09:58:40.392Z,101982.06
2022-07-30T10:01:16.089Z,101957.28
2022-07-30T10:04:03.199Z,101978.72
2022-07-30T10:06:51.478Z,101979.06
2022-07-30T10:09:42.657Z,101978.47
2022-07-30T10:12:15.816Z,101972.59
2022-07-30T10:14:50.555Z,101973.53
2022-07-30T10:17:23.131Z,101956.38
2022-07-30T10:20:13.226Z,101966.22
2022-07-30T10:22:50.579Z,101955.56
2022-07-30T10:25:49.560Z,101956.06
2022-07-30T10:28:58.755Z,101975.72
2022-07-30T10:31:48.489Z,101981.59
2022-07-30T10:34:23.782Z,101944.09
2022-07-30T10:37:02.472Z,101982.22
2022-07-30T10:39:39.915Z,101953.22
2022-07-30T10:42:34.009Z,101950.22
2022-07-30T10:45:19.525Z,101977.88
2022-07-30T10:47:49.799Z,101955.63
2022-07-30T10:50:26.890Z,101958.97
2022-07-30T10:52:57.546Z,101959.69
2022-07-30T10:55:36.525Z,101978.66
2022-07-30T10:58:10.712Z,101958.13
2022-07-30T11:01:00.352Z,101952.66
2022-07-30T11:03:40.575Z,101966.00
2022-07-30T11:06:29.306Z,101950.28
2022-07-30T11:08:58.319Z,101942.28
2022-07-30T11:12:05.463Z,101961.13
2022-07-30T11:15:06.850Z,101957.50
2022-07-30T11:18:12.540Z,101952.25
2022-07-30T11:20:43.087Z,101938.09
2022-07-30T11:23:39.520Z,101967.91
2022-07-30T11:26:14.207Z,101942.50
2022-07-30T11:28:46.199Z,101962.91
2022-07-30T11:31:54.798Z,101956.94
2022-07-30T11:34:30.934Z,101952.22
2022-07-30T11:37:22.492Z,101948.25
2022-07-30T11:40:14.666Z,101954.16
2022-07-30T11:42:44.672Z,101952.03
2022-07-30T11:45:33.487Z,101951.31
2022-07-30T11:48:02.175Z,101937.66
2022-07-30T11:50:34.984Z,101959.50
2022-07-30T11:53:06.686Z,101956.59
2022-07-30T11:55:39.362Z,101960.28
2022-07-30T11:58:10.740Z,101941.41
2022-07-30T12:00:42.319Z,101946.72
2022-07-30T12:03:13.511Z,101928.25
2022-07-30T12:05:43.040Z,101951.38
2022-07-30T12:08:35.929Z,101951.28
2022-07-30T12:11:03.070Z,101923.66
2022-07-30T12:13:44.905Z,101939.50
2022-07-30T12:16:17.492Z,101953.03
2022-07-30T12:18:47.735Z,101951.00
2022-07-30T12:21:17.077Z,101931.84
2022-07-30T12:23:56.464Z,101954.34
2022-07-30T12:26:29.427Z,101935.81
2022-07-30T12:28:59.434Z,101938.81
2022-07-30T12:31:28.671Z,101940.38
2022-07-30T12:33:58.346Z,101932.84
2022-07-30T12:36:31.826Z,101938.88
2022-07-30T12:39:01.105Z,101941.00
2022-07-30T12:41:46.759Z,101942.94
2022-07-30T12:44:37.081Z,101955.78
2022-07-30T12:47:07.673Z,101960.06
2022-07-30T12:49:39.260Z,101954.16
2022-07-30T12:52:30.857Z,101950.34
2022-07-30T12:55:06.117Z,101938.91
2022-07-30T12:57:56.568Z,101935.41
2022-07-30T13:00:27.312Z,101911.59
2022-07-30T13:02:56.646Z,101935.72
2022-07-30T13:05:47.208Z,101935.34
2022-07-30T13:08:16.121Z,101926.56
2022-07-30T13:10:59.783Z,101928.31
2022-07-30T13:13:31.001Z,101937.63
2022-07-30T13:16:01.852Z,101913.28
2022-07-30T13:18:31.915Z,101906.78
2022-07-30T13:21:01.845Z,101931.25
2022-07-30T13:23:30.941Z,101930.53
2022-07-30T13:25:59.295Z,101920.16
2022-07-30T13:28:29.207Z,101906.84
2022-07-30T13:30:58.762Z,101910.88
2022-07-30T13:33:27.327Z,101926.19
2022-07-30T13:35:55.784Z,101896.22
2022-07-30T13:38:24.103Z,101908.63
2022-07-30T13:40:52.986Z,101918.34
2022-07-30T13:43:22.326Z,101906.25
2022-07-30T13:45:53.292Z,101914.53
2022-07-30T13:48:22.316Z,101916.31
2022-07-30T13:50:51.308Z,101923.00
2022-07-30T13:53:19.874Z,101921.03
2022-07-30T13:55:48.476Z,101898.38
2022-07-30T13:58:16.871Z,101904.06
2022-07-30T14:00:47.779Z,101890.31
2022-07-30T14:03:17.563Z,101918.09
2022-07-30T14:05:45.896Z,101896.91
2022-07-30T14:08:14.246Z,101898.63
2022-07-30T14:10:42.803Z,101900.34
2022-07-30T14:13:16.052Z,101901.94
2022-07-30T14:15:49.708Z,101901.59
2022-07-30T14:18:19.632Z,101884.16
2022-07-30T14:20:49.483Z,101891.84
2022-07-30T14:23:18.351Z,101877.91
2022-07-30T14:25:47.012Z,101873.31
2022-07-30T14:28:15.943Z,101889.72
2022-07-30T14:30:44.702Z,101866.47
2022-07-30T14:33:13.209Z,101885.69
2022-07-30T14:35:45.195Z,101887.41
2022-07-30T14:38:13.776Z,101883.91
2022-07-30T14:40:42.194Z,101736.78
2022-07-30T14:43:10.527Z,101872.31
2022-07-30T14:45:39.283Z,101853.84
2022-07-30T14:48:08.082Z,101884.63
2022-07-30T14:50:46.720Z,101877.78
2022-07-30T14:53:26.150Z,101884.59
2022-07-30T14:55:54.614Z,101852.41
2022-07-30T14:58:22.933Z,101840.19
2022-07-30T15:00:51.592Z,101884.56
2022-07-30T15:03:20.008Z,101868.72
2022-07-30T15:05:52.421Z,101854.63
2022-07-30T15:08:21.829Z,101859.81
2022-07-30T15:10:51.702Z,101872.38
2022-07-30T15:13:20.861Z,101853.22
2022-07-30T15:15:49.566Z,101859.13
2022-07-30T15:18:17.953Z,101852.00
2022-07-30T15:20:46.323Z,101876.69
2022-07-30T15:23:15.228Z,101858.09
2022-07-30T15:25:45.377Z,101854.38
2022-07-30T15:28:18.253Z,101871.06
2022-07-30T15:30:46.749Z,101865.66
2022-07-30T15:33:15.455Z,101859.09
2022-07-30T15:35:44.013Z,101849.31
2022-07-30T15:38:12.962Z,101859.84
2022-07-30T15:40:42.953Z,101875.88
2022-07-30T15:43:11.578Z,101847.03
2022-07-30T15:45:55.605Z,101838.00
2022-07-30T15:48:27.338Z,101873.69
2022-07-30T15:51:01.991Z,101873.84
2022-07-30T15:53:31.154Z,101878.31
2022-07-30T15:56:00.311Z,101852.06
2022-07-30T15:58:29.023Z,101866.66
2022-07-30T16:00:58.765Z,101881.16
2022-07-30T16:03:27.211Z,101876.84
2022-07-30T16:05:55.603Z,101875.47
2022-07-30T16:08:24.118Z,101861.19
2022-07-30T16:10:52.951Z,101860.28
2022-07-30T16:13:21.552Z,101862.00
2022-07-30T16:15:50.016Z,101875.34
2022-07-30T16:18:19.759Z,101852.31
2022-07-30T16:20:48.084Z,101873.97
2022-07-30T16:23:21.136Z,101869.91
2022-07-30T16:25:50.178Z,101871.97
2022-07-30T16:28:18.574Z,101868.91
2022-07-30T16:30:51.486Z,101862.22
2022-07-30T16:33:22.018Z,101856.25
2022-07-30T16:35:51.254Z,101843.84
2022-07-30T16:38:20.379Z,101845.50
2022-07-30T16:40:48.862Z,101865.38
2022-07-30T16:43:19.691Z,101852.81
2022-07-30T16:45:49.224Z,101825.66
2022-07-30T16:48:17.961Z,101856.25
2022-07-30T16:50:47.833Z,101832.00
2022-07-30T16:53:16.299Z,101821.31
2022-07-30T16:55:45.638Z,101853.16
2022-07-30T16:58:14.334Z,101838.69
2022-07-30T17:00:43.197Z,101829.41
2022-07-30T17:03:11.968Z,101822.94
2022-07-30T17:05:49.967Z,101803.69
2022-07-30T17:08:18.592Z,101818.81
2022-07-30T17:10:53.571Z,101825.44
2022-07-30T17:13:22.334Z,101824.00
2022-07-30T17:15:51.017Z,101838.28
2022-07-30T17:18:19.481Z,101811.09
2022-07-30T17:20:49.329Z,101824.16
2022-07-30T17:23:17.719Z,101803.72
2022-07-30T17:25:46.325Z,101803.41
2022-07-30T17:28:14.793Z,101816.44
2022-07-30T17:30:43.392Z,101805.75
2022-07-30T17:33:11.850Z,101808.25
2022-07-30T17:35:40.258Z,101804.44
2022-07-30T17:38:10.001Z,101822.63
2022-07-30T17:40:38.512Z,101823.09
2022-07-30T17:43:07.726Z,101823.91
2022-07-30T17:45:37.659Z,101811.84
2022-07-30T17:48:07.788Z,101826.75
2022-07-30T17:50:36.744Z,101800.34
2022-07-30T17:53:07.247Z,101817.94
2022-07-30T17:55:37.038Z,101814.53
2022-07-30T17:58:06.208Z,101802.56
2022-07-30T18:00:35.477Z,101827.38
2022-07-30T18:03:04.523Z,101822.19
2022-07-30T18:05:33.110Z,101797.34
2022-07-30T18:08:01.570Z,101824.16
2022-07-30T18:10:30.055Z,101812.31
2022-07-30T18:12:59.797Z,101818.63
2022-07-30T18:15:48.681Z,101826.63
2022-07-30T18:18:17.340Z,101813.84
2022-07-30T18:20:48.197Z,101825.78
2022-07-30T18:23:19.169Z,101824.63
2022-07-30T18:25:51.945Z,101819.31
2022-07-30T18:28:23.616Z,101810.53
2022-07-30T18:30:53.081Z,101803.78
2022-07-30T18:33:21.455Z,101828.84
2022-07-30T18:35:50.083Z,101797.25
2022-07-30T18:38:19.234Z,101816.66
2022-07-30T18:40:57.609Z,101800.38
2022-07-30T18:43:28.536Z,101817.38
2022-07-30T18:45:58.364Z,101804.53
2022-07-30T18:48:27.332Z,101812.53
2022-07-30T18:50:55.805Z,101796.78
2022-07-30T18:53:24.584Z,101808.25
2022-07-30T18:55:52.963Z,101824.84
2022-07-30T18:58:21.340Z,101826.69
2022-07-30T19:00:51.502Z,101797.69
2022-07-30T19:03:22.975Z,101804.31
2022-07-30T19:05:51.672Z,101825.34
2022-07-30T19:08:20.076Z,101797.44
2022-07-30T19:10:48.607Z,101823.34
2022-07-30T19:13:17.050Z,101810.59
2022-07-30T19:15:45.451Z,101809.06
2022-07-30T19:18:15.474Z,101815.59
2022-07-30T19:20:44.899Z,101810.47
2022-07-30T19:23:13.679Z,101807.97
2022-07-30T19:25:42.109Z,101824.84
2022-07-30T19:28:11.267Z,101820.59
2022-07-30T19:30:39.842Z,101795.19
2022-07-30T19:33:15.319Z,101808.63
2022-07-30T19:35:47.199Z,101789.56
2022-07-30T19:38:21.839Z,101766.00
2022-07-30T19:40:52.760Z,101817.31
2022-07-30T19:43:23.776Z,101781.22
2022-07-30T19:45:52.767Z,101803.34
2022-07-30T19:48:29.595Z,101807.00
2022-07-30T19:51:01.957Z,101808.25
2022-07-30T19:53:34.071Z,101791.84
2022-07-30T19:56:10.584Z,101801.94
2022-07-30T19:58:40.237Z,101821.41
2022-07-30T20:01:12.322Z,101808.72
2022-07-30T20:03:40.983Z,101816.97
2022-07-30T20:06:14.816Z,101798.75
2022-07-30T20:08:44.920Z,101807.09
2022-07-30T20:11:21.369Z,101814.16
2022-07-30T20:14:03.045Z,101796.78
2022-07-30T20:16:31.662Z,101828.78
2022-07-30T20:19:00.313Z,101831.88
2022-07-30T20:21:57.087Z,101794.34
2022-07-30T20:24:22.248Z,101825.22
2022-07-30T20:26:50.780Z,101840.38
2022-07-30T20:29:20.762Z,101821.16
2022-07-30T20:32:00.437Z,101828.44
2022-07-30T20:34:30.960Z,101844.47
2022-07-30T20:37:13.804Z,101845.50
2022-07-30T20:39:50.563Z,101835.19
2022-07-30T20:42:19.317Z,101838.09
2022-07-30T20:44:51.540Z,101855.78
2022-07-30T20:50:14.480Z,101834.66
2022-07-30T20:52:46.795Z,101864.03
2022-07-30T20:55:17.647Z,101865.09
2022-07-30T20:57:56.907Z,101844.28
2022-07-30T21:00:31.595Z,101858.66
2022-07-30T21:03:03.204Z,101862.22
2022-07-30T21:05:32.213Z,101854.28
2022-07-30T21:08:02.015Z,101831.28
2022-07-30T21:10:30.335Z,101846.28
2022-07-30T21:13:03.796Z,101855.00
2022-07-30T21:15:37.011Z,101853.19
2022-07-30T21:18:14.685Z,101835.00
2022-07-30T21:20:47.424Z,101831.38
2022-07-30T21:23:22.179Z,101854.47
2022-07-30T21:26:00.558Z,101844.09
2022-07-30T21:28:35.242Z,101854.75
2022-07-30T21:31:07.082Z,101833.56
2022-07-30T21:33:36.752Z,101839.78
2022-07-30T21:36:10.929Z,101866.28
2022-07-30T21:38:42.023Z,101857.53
2022-07-30T21:41:13.857Z,101852.09
2022-07-30T21:43:44.469Z,101837.06
2022-07-30T21:46:13.407Z,101861.75
2022-07-30T21:48:43.242Z,101837.13
2022-07-30T21:51:12.490Z,101859.41
2022-07-30T21:53:45.304Z,101859.31
2022-07-30T21:56:16.258Z,101864.75
2022-07-30T21:58:45.649Z,101807.25
2022-07-30T22:01:21.781Z,101843.28
2022-07-30T22:04:01.208Z,101851.19
2022-07-30T22:06:33.798Z,101842.25
2022-07-30T22:09:18.101Z,101834.38
2022-07-30T22:11:47.542Z,101843.94
2022-07-30T22:14:15.887Z,101844.31
2022-07-30T22:16:46.065Z,101836.28
2022-07-30T22:19:15.630Z,101849.34
2022-07-30T22:21:46.678Z,101866.09
2022-07-30T22:24:28.680Z,101846.69
2022-07-30T22:27:01.575Z,101847.53
2022-07-30T22:29:38.756Z,101854.56
2022-07-30T22:32:08.569Z,101844.78
2022-07-30T22:34:37.025Z,101857.28
2022-07-30T22:37:12.399Z,101811.69
2022-07-30T22:39:52.037Z,101832.88
2022-07-30T22:42:24.930Z,101837.22
2022-07-30T22:44:55.783Z,101852.41
2022-07-30T22:47:53.821Z,101859.66
2022-07-30T22:50:15.233Z,101826.19
2022-07-30T22:52:56.206Z,101857.06
2022-07-30T22:55:38.248Z,101858.94
2022-07-30T22:58:06.742Z,101862.59
2022-07-30T23:00:35.426Z,101869.69
2022-07-30T23:03:04.202Z,101811.63
2022-07-30T23:05:36.634Z,101831.97
2022-07-30T23:08:08.517Z,101857.31
2022-07-30T23:10:38.410Z,101829.88
2022-07-30T23:12:19.354Z,101857.63
2022-07-30T23:15:41.130Z,101845.81
2022-07-30T23:18:09.481Z,101842.16
2022-07-30T23:20:37.798Z,101839.59
2022-07-30T23:23:06.177Z,101830.53
2022-07-30T23:25:38.718Z,101805.72
2022-07-30T23:28:09.014Z,101790.69
2022-07-30T23:30:37.336Z,101824.78
2022-07-30T23:33:05.680Z,101806.31
2022-07-30T23:35:34.911Z,101793.88
2022-07-30T23:38:03.252Z,101790.22
2022-07-30T23:40:31.703Z,101788.41
2022-07-30T23:42:59.999Z,101771.56
2022-07-30T23:45:30.069Z,101780.41
2022-07-30T23:48:02.399Z,101774.28
2022-07-30T23:50:32.493Z,101803.31
2022-07-30T23:53:01.566Z,101797.97
2022-07-30T23:55:31.053Z,101783.06
2022-07-30T23:58:00.167Z,101789.97
